Gunter, Texas
Current Conditions -  °F | °C
As of 5:35 PM on Saturday 20 Dec 2014 (Local Time) from KGYI Reporting Station
Overcast Overcast  
Wind Chill: 46°   Ceiling: 3000
Heat Index: 46°   Visibility: 10mi
Dew Point: 44°   Wind: 0mph
Humidity: 91%   Direction: NA
Pressure: 30.19"   Gusts: NA
Location:  33.45°N, 96.75°W
Report Text: KGYI 202335Z AUTO 00000KT 10SM OVC030 08/06 A3019 RMK AO2 T00780064
Loading
Personal Weather Stations






























Interactive Weather Map New forecast layout! Learn more

10-Day Weather Forecast

Advertisements
Track Severe Weather on mobile